sensor_id;sensor_type;location;lat;lon;timestamp;P1;durP1;ratioP1;P2;durP2;ratioP2
68353;SDS011;55274;43.060;25.618;2023-05-29T00:00:47;6.47;;;4.00;;
68353;SDS011;55274;43.060;25.618;2023-05-29T00:03:12;9.23;;;4.57;;
68353;SDS011;55274;43.060;25.618;2023-05-29T00:05:38;8.10;;;4.30;;
68353;SDS011;55274;43.060;25.618;2023-05-29T00:08:04;12.32;;;5.55;;
68353;SDS011;55274;43.060;25.618;2023-05-29T00:10:31;10.63;;;5.25;;
68353;SDS011;55274;43.060;25.618;2023-05-29T00:12:57;10.50;;;4.90;;
68353;SDS011;55274;43.060;25.618;2023-05-29T00:15:26;8.98;;;4.57;;
68353;SDS011;55274;43.060;25.618;2023-05-29T00:17:52;14.15;;;5.93;;
68353;SDS011;55274;43.060;25.618;2023-05-29T00:20:17;14.30;;;5.88;;
68353;SDS011;55274;43.060;25.618;2023-05-29T00:22:43;14.23;;;7.40;;
68353;SDS011;55274;43.060;25.618;2023-05-29T00:25:09;12.15;;;6.60;;
68353;SDS011;55274;43.060;25.618;2023-05-29T00:27:35;7.18;;;4.25;;
68353;SDS011;55274;43.060;25.618;2023-05-29T00:30:01;9.68;;;4.47;;
68353;SDS011;55274;43.060;25.618;2023-05-29T00:32:28;9.35;;;4.78;;
68353;SDS011;55274;43.060;25.618;2023-05-29T00:34:54;7.53;;;4.35;;
68353;SDS011;55274;43.060;25.618;2023-05-29T00:37:21;10.25;;;4.45;;
68353;SDS011;55274;43.060;25.618;2023-05-29T00:39:47;7.25;;;4.78;;
68353;SDS011;55274;43.060;25.618;2023-05-29T00:42:13;7.25;;;4.53;;
68353;SDS011;55274;43.060;25.618;2023-05-29T00:44:39;12.65;;;6.43;;
68353;SDS011;55274;43.060;25.618;2023-05-29T00:47:05;12.38;;;6.38;;
68353;SDS011;55274;43.060;25.618;2023-05-29T00:49:31;11.52;;;6.18;;
68353;SDS011;55274;43.060;25.618;2023-05-29T00:51:58;11.88;;;6.53;;
68353;SDS011;55274;43.060;25.618;2023-05-29T00:54:26;12.48;;;5.40;;
68353;SDS011;55274;43.060;25.618;2023-05-29T00:56:54;11.07;;;4.70;;
68353;SDS011;55274;43.060;25.618;2023-05-29T00:59:21;12.35;;;5.30;;
68353;SDS011;55274;43.060;25.618;2023-05-29T01:01:48;12.77;;;5.20;;
68353;SDS011;55274;43.060;25.618;2023-05-29T01:04:15;11.15;;;5.15;;
68353;SDS011;55274;43.060;25.618;2023-05-29T01:06:42;11.13;;;5.18;;
68353;SDS011;55274;43.060;25.618;2023-05-29T01:09:09;9.60;;;5.00;;
68353;SDS011;55274;43.060;25.618;2023-05-29T01:20:35;10.85;;;5.03;;
68353;SDS011;55274;43.060;25.618;2023-05-29T01:28:44;9.60;;;5.53;;
68353;SDS011;55274;43.060;25.618;2023-05-29T01:31:14;10.93;;;5.32;;
68353;SDS011;55274;43.060;25.618;2023-05-29T01:33:55;16.23;;;6.97;;
68353;SDS011;55274;43.060;25.618;2023-05-29T01:36:22;15.32;;;6.85;;
68353;SDS011;55274;43.060;25.618;2023-05-29T01:38:48;16.70;;;6.32;;
68353;SDS011;55274;43.060;25.618;2023-05-29T01:41:19;14.15;;;6.50;;
68353;SDS011;55274;43.060;25.618;2023-05-29T01:43:47;11.25;;;7.25;;
68353;SDS011;55274;43.060;25.618;2023-05-29T01:46:14;13.40;;;6.80;;
68353;SDS011;55274;43.060;25.618;2023-05-29T01:48:41;13.30;;;6.53;;
68353;SDS011;55274;43.060;25.618;2023-05-29T01:51:08;15.10;;;6.63;;
68353;SDS011;55274;43.060;25.618;2023-05-29T01:53:40;16.17;;;7.10;;
68353;SDS011;55274;43.060;25.618;2023-05-29T01:56:07;14.38;;;6.82;;
68353;SDS011;55274;43.060;25.618;2023-05-29T01:58:34;12.38;;;6.50;;
68353;SDS011;55274;43.060;25.618;2023-05-29T02:01:03;15.15;;;5.93;;
68353;SDS011;55274;43.060;25.618;2023-05-29T02:03:31;10.25;;;5.78;;
68353;SDS011;55274;43.060;25.618;2023-05-29T02:05:57;11.63;;;5.90;;
68353;SDS011;55274;43.060;25.618;2023-05-29T02:08:24;12.02;;;6.05;;
68353;SDS011;55274;43.060;25.618;2023-05-29T02:10:50;12.68;;;6.65;;
68353;SDS011;55274;43.060;25.618;2023-05-29T02:13:17;12.77;;;6.22;;
68353;SDS011;55274;43.060;25.618;2023-05-29T02:15:43;15.57;;;7.35;;
68353;SDS011;55274;43.060;25.618;2023-05-29T02:18:10;13.15;;;6.00;;
68353;SDS011;55274;43.060;25.618;2023-05-29T02:20:39;11.98;;;6.32;;
68353;SDS011;55274;43.060;25.618;2023-05-29T02:23:05;14.15;;;7.57;;
68353;SDS011;55274;43.060;25.618;2023-05-29T02:25:33;16.52;;;8.48;;
68353;SDS011;55274;43.060;25.618;2023-05-29T02:27:59;17.50;;;9.00;;
68353;SDS011;55274;43.060;25.618;2023-05-29T02:30:25;14.82;;;7.85;;
68353;SDS011;55274;43.060;25.618;2023-05-29T02:32:51;12.35;;;6.95;;
68353;SDS011;55274;43.060;25.618;2023-05-29T02:35:16;16.00;;;6.80;;
68353;SDS011;55274;43.060;25.618;2023-05-29T02:37:45;13.10;;;7.15;;
68353;SDS011;55274;43.060;25.618;2023-05-29T02:40:11;13.32;;;7.13;;
68353;SDS011;55274;43.060;25.618;2023-05-29T02:42:37;13.23;;;6.35;;
68353;SDS011;55274;43.060;25.618;2023-05-29T02:45:03;14.23;;;7.80;;
68353;SDS011;55274;43.060;25.618;2023-05-29T02:47:29;13.65;;;7.18;;
68353;SDS011;55274;43.060;25.618;2023-05-29T02:49:55;12.77;;;6.95;;
68353;SDS011;55274;43.060;25.618;2023-05-29T02:52:21;14.10;;;7.70;;
68353;SDS011;55274;43.060;25.618;2023-05-29T02:54:48;13.63;;;7.72;;
68353;SDS011;55274;43.060;25.618;2023-05-29T02:57:14;11.90;;;6.90;;
68353;SDS011;55274;43.060;25.618;2023-05-29T02:59:40;11.43;;;7.07;;
68353;SDS011;55274;43.060;25.618;2023-05-29T03:02:07;14.43;;;8.10;;
68353;SDS011;55274;43.060;25.618;2023-05-29T03:04:33;18.85;;;9.80;;
68353;SDS011;55274;43.060;25.618;2023-05-29T03:06:58;22.60;;;10.93;;
68353;SDS011;55274;43.060;25.618;2023-05-29T03:09:24;17.85;;;9.77;;
68353;SDS011;55274;43.060;25.618;2023-05-29T03:11:50;25.23;;;12.55;;
68353;SDS011;55274;43.060;25.618;2023-05-29T03:14:17;18.20;;;10.15;;
68353;SDS011;55274;43.060;25.618;2023-05-29T03:16:44;18.15;;;10.00;;
68353;SDS011;55274;43.060;25.618;2023-05-29T03:19:10;17.65;;;9.45;;
68353;SDS011;55274;43.060;25.618;2023-05-29T03:21:36;15.50;;;9.50;;
68353;SDS011;55274;43.060;25.618;2023-05-29T03:24:02;20.42;;;9.50;;
68353;SDS011;55274;43.060;25.618;2023-05-29T03:26:28;15.93;;;9.60;;
68353;SDS011;55274;43.060;25.618;2023-05-29T03:28:54;16.92;;;10.60;;
68353;SDS011;55274;43.060;25.618;2023-05-29T03:31:20;19.95;;;10.30;;
68353;SDS011;55274;43.060;25.618;2023-05-29T03:33:46;20.00;;;10.55;;
68353;SDS011;55274;43.060;25.618;2023-05-29T03:36:13;19.27;;;9.70;;
68353;SDS011;55274;43.060;25.618;2023-05-29T03:38:39;19.00;;;10.00;;
68353;SDS011;55274;43.060;25.618;2023-05-29T03:41:05;17.45;;;9.73;;
68353;SDS011;55274;43.060;25.618;2023-05-29T03:43:30;17.92;;;9.32;;
68353;SDS011;55274;43.060;25.618;2023-05-29T03:45:56;18.70;;;10.25;;
68353;SDS011;55274;43.060;25.618;2023-05-29T03:48:22;21.23;;;10.43;;
68353;SDS011;55274;43.060;25.618;2023-05-29T03:50:48;20.50;;;10.50;;
68353;SDS011;55274;43.060;25.618;2023-05-29T03:53:14;17.98;;;10.10;;
68353;SDS011;55274;43.060;25.618;2023-05-29T03:55:40;19.80;;;10.48;;
68353;SDS011;55274;43.060;25.618;2023-05-29T03:58:06;23.35;;;10.55;;
68353;SDS011;55274;43.060;25.618;2023-05-29T04:00:32;18.02;;;9.88;;
68353;SDS011;55274;43.060;25.618;2023-05-29T04:02:58;20.27;;;10.82;;
68353;SDS011;55274;43.060;25.618;2023-05-29T04:05:24;18.55;;;9.15;;
68353;SDS011;55274;43.060;25.618;2023-05-29T04:07:51;18.60;;;9.73;;
68353;SDS011;55274;43.060;25.618;2023-05-29T04:10:17;23.65;;;10.27;;
68353;SDS011;55274;43.060;25.618;2023-05-29T04:12:43;18.55;;;9.90;;
68353;SDS011;55274;43.060;25.618;2023-05-29T04:15:09;17.45;;;9.43;;
68353;SDS011;55274;43.060;25.618;2023-05-29T04:17:34;18.25;;;9.93;;
68353;SDS011;55274;43.060;25.618;2023-05-29T04:20:00;18.23;;;10.13;;
68353;SDS011;55274;43.060;25.618;2023-05-29T04:22:33;17.33;;;9.95;;
68353;SDS011;55274;43.060;25.618;2023-05-29T04:24:59;16.40;;;9.63;;
68353;SDS011;55274;43.060;25.618;2023-05-29T04:27:25;16.20;;;9.93;;
68353;SDS011;55274;43.060;25.618;2023-05-29T04:29:50;16.40;;;9.32;;
68353;SDS011;55274;43.060;25.618;2023-05-29T04:32:16;16.75;;;10.23;;
68353;SDS011;55274;43.060;25.618;2023-05-29T04:34:42;24.50;;;10.18;;
68353;SDS011;55274;43.060;25.618;2023-05-29T04:37:10;21.98;;;11.00;;
68353;SDS011;55274;43.060;25.618;2023-05-29T04:39:38;22.27;;;10.25;;
68353;SDS011;55274;43.060;25.618;2023-05-29T04:42:04;17.17;;;9.68;;
68353;SDS011;55274;43.060;25.618;2023-05-29T04:44:30;22.27;;;10.50;;
68353;SDS011;55274;43.060;25.618;2023-05-29T04:46:56;22.83;;;11.93;;
68353;SDS011;55274;43.060;25.618;2023-05-29T04:49:22;19.45;;;10.73;;
68353;SDS011;55274;43.060;25.618;2023-05-29T04:51:48;20.20;;;11.30;;
68353;SDS011;55274;43.060;25.618;2023-05-29T04:54:17;19.92;;;10.43;;
68353;SDS011;55274;43.060;25.618;2023-05-29T04:56:45;20.35;;;10.27;;
68353;SDS011;55274;43.060;25.618;2023-05-29T04:59:11;23.10;;;11.02;;
68353;SDS011;55274;43.060;25.618;2023-05-29T05:01:37;21.33;;;10.82;;
68353;SDS011;55274;43.060;25.618;2023-05-29T05:04:03;20.42;;;11.57;;
68353;SDS011;55274;43.060;25.618;2023-05-29T05:06:29;25.17;;;12.55;;
68353;SDS011;55274;43.060;25.618;2023-05-29T05:08:55;24.13;;;11.40;;
68353;SDS011;55274;43.060;25.618;2023-05-29T05:11:21;21.50;;;11.20;;
68353;SDS011;55274;43.060;25.618;2023-05-29T05:13:48;22.08;;;10.85;;
68353;SDS011;55274;43.060;25.618;2023-05-29T05:16:14;30.00;;;11.23;;
68353;SDS011;55274;43.060;25.618;2023-05-29T05:18:41;25.90;;;12.27;;
68353;SDS011;55274;43.060;25.618;2023-05-29T05:21:08;25.52;;;11.85;;
68353;SDS011;55274;43.060;25.618;2023-05-29T05:23:35;28.40;;;13.25;;
68353;SDS011;55274;43.060;25.618;2023-05-29T05:26:01;24.23;;;12.65;;
68353;SDS011;55274;43.060;25.618;2023-05-29T05:28:27;25.70;;;13.05;;
68353;SDS011;55274;43.060;25.618;2023-05-29T05:30:53;26.13;;;13.32;;
68353;SDS011;55274;43.060;25.618;2023-05-29T05:33:19;20.52;;;11.85;;
68353;SDS011;55274;43.060;25.618;2023-05-29T05:35:45;26.83;;;13.48;;
68353;SDS011;55274;43.060;25.618;2023-05-29T05:38:11;25.13;;;13.57;;
68353;SDS011;55274;43.060;25.618;2023-05-29T05:40:37;23.95;;;13.63;;
68353;SDS011;55274;43.060;25.618;2023-05-29T05:43:03;25.73;;;12.93;;
68353;SDS011;55274;43.060;25.618;2023-05-29T05:45:29;21.77;;;12.15;;
68353;SDS011;55274;43.060;25.618;2023-05-29T05:47:56;25.75;;;11.80;;
68353;SDS011;55274;43.060;25.618;2023-05-29T05:50:22;27.02;;;11.73;;
68353;SDS011;55274;43.060;25.618;2023-05-29T05:52:49;22.40;;;11.68;;
68353;SDS011;55274;43.060;25.618;2023-05-29T05:55:15;24.48;;;12.30;;
68353;SDS011;55274;43.060;25.618;2023-05-29T05:57:41;27.75;;;12.45;;
68353;SDS011;55274;43.060;25.618;2023-05-29T06:00:07;26.77;;;12.15;;
68353;SDS011;55274;43.060;25.618;2023-05-29T06:02:39;24.92;;;13.00;;
68353;SDS011;55274;43.060;25.618;2023-05-29T06:05:09;27.35;;;13.23;;
68353;SDS011;55274;43.060;25.618;2023-05-29T06:07:35;23.92;;;13.25;;
68353;SDS011;55274;43.060;25.618;2023-05-29T06:10:01;24.58;;;13.25;;
68353;SDS011;55274;43.060;25.618;2023-05-29T06:12:29;30.05;;;14.80;;
68353;SDS011;55274;43.060;25.618;2023-05-29T06:14:55;31.73;;;15.70;;
68353;SDS011;55274;43.060;25.618;2023-05-29T06:17:21;29.33;;;15.15;;
68353;SDS011;55274;43.060;25.618;2023-05-29T06:19:49;29.98;;;14.10;;
68353;SDS011;55274;43.060;25.618;2023-05-29T06:22:15;25.17;;;13.40;;
68353;SDS011;55274;43.060;25.618;2023-05-29T06:24:41;26.73;;;14.27;;
68353;SDS011;55274;43.060;25.618;2023-05-29T06:27:07;22.75;;;13.30;;
68353;SDS011;55274;43.060;25.618;2023-05-29T06:29:33;25.77;;;13.95;;
68353;SDS011;55274;43.060;25.618;2023-05-29T06:31:59;31.42;;;15.65;;
68353;SDS011;55274;43.060;25.618;2023-05-29T06:34:25;31.67;;;15.35;;
68353;SDS011;55274;43.060;25.618;2023-05-29T06:36:51;123.55;;;74.38;;
68353;SDS011;55274;43.060;25.618;2023-05-29T06:39:17;38.50;;;20.23;;
68353;SDS011;55274;43.060;25.618;2023-05-29T06:41:43;30.25;;;14.75;;
68353;SDS011;55274;43.060;25.618;2023-05-29T06:44:09;24.73;;;14.60;;
68353;SDS011;55274;43.060;25.618;2023-05-29T06:46:35;28.42;;;15.65;;
68353;SDS011;55274;43.060;25.618;2023-05-29T06:49:00;26.13;;;14.95;;
68353;SDS011;55274;43.060;25.618;2023-05-29T06:51:26;27.13;;;14.70;;
68353;SDS011;55274;43.060;25.618;2023-05-29T06:53:52;24.10;;;13.38;;
68353;SDS011;55274;43.060;25.618;2023-05-29T06:56:18;25.38;;;13.13;;
68353;SDS011;55274;43.060;25.618;2023-05-29T06:58:43;23.45;;;13.35;;
68353;SDS011;55274;43.060;25.618;2023-05-29T07:01:10;33.05;;;17.65;;
68353;SDS011;55274;43.060;25.618;2023-05-29T07:03:36;22.67;;;13.18;;
68353;SDS011;55274;43.060;25.618;2023-05-29T07:06:03;22.67;;;12.88;;
68353;SDS011;55274;43.060;25.618;2023-05-29T07:08:29;37.30;;;18.60;;
68353;SDS011;55274;43.060;25.618;2023-05-29T07:10:55;37.53;;;20.33;;
68353;SDS011;55274;43.060;25.618;2023-05-29T07:13:21;25.00;;;13.55;;
68353;SDS011;55274;43.060;25.618;2023-05-29T07:15:48;31.00;;;16.13;;
68353;SDS011;55274;43.060;25.618;2023-05-29T07:18:14;22.77;;;12.88;;
68353;SDS011;55274;43.060;25.618;2023-05-29T07:20:40;23.98;;;13.73;;
68353;SDS011;55274;43.060;25.618;2023-05-29T07:23:05;25.48;;;14.32;;
68353;SDS011;55274;43.060;25.618;2023-05-29T07:25:31;31.17;;;15.93;;
68353;SDS011;55274;43.060;25.618;2023-05-29T07:27:57;24.10;;;13.48;;
68353;SDS011;55274;43.060;25.618;2023-05-29T07:30:23;29.30;;;14.95;;
68353;SDS011;55274;43.060;25.618;2023-05-29T07:32:49;27.73;;;13.25;;
68353;SDS011;55274;43.060;25.618;2023-05-29T07:35:15;32.03;;;14.02;;
68353;SDS011;55274;43.060;25.618;2023-05-29T07:37:41;31.83;;;13.98;;
68353;SDS011;55274;43.060;25.618;2023-05-29T07:40:06;24.33;;;11.98;;
68353;SDS011;55274;43.060;25.618;2023-05-29T07:42:33;31.10;;;12.38;;
68353;SDS011;55274;43.060;25.618;2023-05-29T07:44:59;21.52;;;11.52;;
68353;SDS011;55274;43.060;25.618;2023-05-29T07:47:25;24.63;;;12.60;;
68353;SDS011;55274;43.060;25.618;2023-05-29T07:49:51;29.73;;;14.60;;
68353;SDS011;55274;43.060;25.618;2023-05-29T07:52:17;28.27;;;13.73;;
68353;SDS011;55274;43.060;25.618;2023-05-29T07:54:43;26.88;;;12.13;;
68353;SDS011;55274;43.060;25.618;2023-05-29T07:57:09;27.65;;;14.35;;
68353;SDS011;55274;43.060;25.618;2023-05-29T07:59:41;26.20;;;12.00;;
68353;SDS011;55274;43.060;25.618;2023-05-29T08:02:07;20.15;;;10.63;;
68353;SDS011;55274;43.060;25.618;2023-05-29T08:04:33;20.38;;;11.70;;
68353;SDS011;55274;43.060;25.618;2023-05-29T08:07:01;19.88;;;10.95;;
68353;SDS011;55274;43.060;25.618;2023-05-29T08:09:29;17.27;;;9.65;;
68353;SDS011;55274;43.060;25.618;2023-05-29T08:11:55;14.90;;;8.95;;
68353;SDS011;55274;43.060;25.618;2023-05-29T08:14:21;16.45;;;8.95;;
68353;SDS011;55274;43.060;25.618;2023-05-29T08:16:46;19.88;;;10.27;;
68353;SDS011;55274;43.060;25.618;2023-05-29T08:19:12;26.83;;;13.43;;
68353;SDS011;55274;43.060;25.618;2023-05-29T08:21:38;30.77;;;15.40;;
68353;SDS011;55274;43.060;25.618;2023-05-29T08:24:04;31.30;;;14.32;;
68353;SDS011;55274;43.060;25.618;2023-05-29T08:26:31;31.15;;;14.48;;
68353;SDS011;55274;43.060;25.618;2023-05-29T08:28:56;26.85;;;12.63;;
68353;SDS011;55274;43.060;25.618;2023-05-29T08:31:22;22.83;;;11.60;;
68353;SDS011;55274;43.060;25.618;2023-05-29T08:33:52;20.77;;;12.18;;
68353;SDS011;55274;43.060;25.618;2023-05-29T08:36:18;22.00;;;11.85;;
68353;SDS011;55274;43.060;25.618;2023-05-29T08:38:46;18.77;;;10.68;;
68353;SDS011;55274;43.060;25.618;2023-05-29T08:41:26;23.50;;;12.32;;
68353;SDS011;55274;43.060;25.618;2023-05-29T08:44:02;22.58;;;11.23;;
68353;SDS011;55274;43.060;25.618;2023-05-29T08:46:31;30.25;;;12.10;;
68353;SDS011;55274;43.060;25.618;2023-05-29T08:48:57;21.60;;;11.75;;
68353;SDS011;55274;43.060;25.618;2023-05-29T08:51:26;15.55;;;9.52;;
68353;SDS011;55274;43.060;25.618;2023-05-29T08:53:56;17.13;;;9.70;;
68353;SDS011;55274;43.060;25.618;2023-05-29T08:56:22;29.88;;;13.95;;
68353;SDS011;55274;43.060;25.618;2023-05-29T08:58:48;26.38;;;12.93;;
68353;SDS011;55274;43.060;25.618;2023-05-29T09:01:14;36.45;;;15.35;;
68353;SDS011;55274;43.060;25.618;2023-05-29T09:03:40;24.73;;;12.45;;
68353;SDS011;55274;43.060;25.618;2023-05-29T09:06:07;18.23;;;10.48;;
68353;SDS011;55274;43.060;25.618;2023-05-29T09:08:33;23.77;;;9.07;;
68353;SDS011;55274;43.060;25.618;2023-05-29T09:11:02;18.00;;;11.25;;
68353;SDS011;55274;43.060;25.618;2023-05-29T09:13:28;21.25;;;11.82;;
68353;SDS011;55274;43.060;25.618;2023-05-29T09:15:57;16.80;;;9.70;;
68353;SDS011;55274;43.060;25.618;2023-05-29T09:18:27;18.65;;;10.52;;
68353;SDS011;55274;43.060;25.618;2023-05-29T09:20:54;20.50;;;11.75;;
68353;SDS011;55274;43.060;25.618;2023-05-29T09:23:20;20.67;;;10.65;;
68353;SDS011;55274;43.060;25.618;2023-05-29T09:25:50;18.70;;;10.23;;
68353;SDS011;55274;43.060;25.618;2023-05-29T09:28:18;16.80;;;9.65;;
68353;SDS011;55274;43.060;25.618;2023-05-29T09:30:46;23.55;;;12.10;;
68353;SDS011;55274;43.060;25.618;2023-05-29T09:33:15;17.15;;;9.93;;
68353;SDS011;55274;43.060;25.618;2023-05-29T09:35:43;14.60;;;8.82;;
68353;SDS011;55274;43.060;25.618;2023-05-29T09:38:14;14.25;;;8.65;;
68353;SDS011;55274;43.060;25.618;2023-05-29T09:40:41;17.40;;;9.05;;
68353;SDS011;55274;43.060;25.618;2023-05-29T09:43:17;17.63;;;9.05;;
68353;SDS011;55274;43.060;25.618;2023-05-29T09:45:48;18.67;;;11.10;;
68353;SDS011;55274;43.060;25.618;2023-05-29T09:48:18;20.27;;;11.82;;
68353;SDS011;55274;43.060;25.618;2023-05-29T09:50:47;16.55;;;10.48;;
68353;SDS011;55274;43.060;25.618;2023-05-29T09:53:17;20.80;;;10.88;;
68353;SDS011;55274;43.060;25.618;2023-05-29T09:58:12;14.70;;;8.82;;
68353;SDS011;55274;43.060;25.618;2023-05-29T10:00:40;14.60;;;8.73;;
68353;SDS011;55274;43.060;25.618;2023-05-29T10:03:07;19.13;;;9.73;;
68353;SDS011;55274;43.060;25.618;2023-05-29T10:05:33;14.52;;;9.55;;
68353;SDS011;55274;43.060;25.618;2023-05-29T10:07:59;15.45;;;8.88;;
68353;SDS011;55274;43.060;25.618;2023-05-29T10:10:27;15.00;;;9.05;;
68353;SDS011;55274;43.060;25.618;2023-05-29T10:12:53;16.98;;;8.85;;
68353;SDS011;55274;43.060;25.618;2023-05-29T10:15:21;21.42;;;12.43;;
68353;SDS011;55274;43.060;25.618;2023-05-29T10:18:02;17.55;;;11.48;;
68353;SDS011;55274;43.060;25.618;2023-05-29T10:20:34;16.52;;;9.82;;
68353;SDS011;55274;43.060;25.618;2023-05-29T10:23:01;14.52;;;8.73;;
68353;SDS011;55274;43.060;25.618;2023-05-29T10:25:29;17.63;;;8.18;;
68353;SDS011;55274;43.060;25.618;2023-05-29T10:27:57;14.73;;;8.68;;
68353;SDS011;55274;43.060;25.618;2023-05-29T10:30:27;20.70;;;9.00;;
68353;SDS011;55274;43.060;25.618;2023-05-29T10:36:17;18.52;;;8.75;;
68353;SDS011;55274;43.060;25.618;2023-05-29T10:38:47;18.65;;;10.60;;
68353;SDS011;55274;43.060;25.618;2023-05-29T10:43:53;19.15;;;9.95;;
68353;SDS011;55274;43.060;25.618;2023-05-29T10:49:22;13.38;;;9.40;;
68353;SDS011;55274;43.060;25.618;2023-05-29T10:51:48;16.88;;;9.82;;
68353;SDS011;55274;43.060;25.618;2023-05-29T10:54:14;14.82;;;8.52;;
68353;SDS011;55274;43.060;25.618;2023-05-29T10:56:44;18.75;;;10.60;;
68353;SDS011;55274;43.060;25.618;2023-05-29T10:59:17;23.38;;;11.35;;
68353;SDS011;55274;43.060;25.618;2023-05-29T11:01:43;18.00;;;10.55;;
68353;SDS011;55274;43.060;25.618;2023-05-29T11:06:47;25.20;;;14.98;;
68353;SDS011;55274;43.060;25.618;2023-05-29T11:14:47;15.70;;;9.75;;
68353;SDS011;55274;43.060;25.618;2023-05-29T11:20:03;14.52;;;9.38;;
68353;SDS011;55274;43.060;25.618;2023-05-29T11:27:46;18.17;;;10.30;;
68353;SDS011;55274;43.060;25.618;2023-05-29T11:30:11;20.60;;;11.65;;
68353;SDS011;55274;43.060;25.618;2023-05-29T11:32:38;20.55;;;12.70;;
68353;SDS011;55274;43.060;25.618;2023-05-29T11:35:09;24.27;;;11.20;;
68353;SDS011;55274;43.060;25.618;2023-05-29T11:37:35;28.73;;;16.90;;
68353;SDS011;55274;43.060;25.618;2023-05-29T11:40:05;20.25;;;12.38;;
68353;SDS011;55274;43.060;25.618;2023-05-29T11:42:33;16.42;;;10.25;;
68353;SDS011;55274;43.060;25.618;2023-05-29T11:45:12;16.52;;;9.80;;
68353;SDS011;55274;43.060;25.618;2023-05-29T11:47:50;14.82;;;9.60;;
68353;SDS011;55274;43.060;25.618;2023-05-29T11:50:20;18.10;;;10.57;;
68353;SDS011;55274;43.060;25.618;2023-05-29T11:52:50;18.50;;;10.60;;
68353;SDS011;55274;43.060;25.618;2023-05-29T11:55:20;19.77;;;11.18;;
68353;SDS011;55274;43.060;25.618;2023-05-29T11:57:47;15.75;;;9.73;;
68353;SDS011;55274;43.060;25.618;2023-05-29T12:00:16;15.55;;;10.20;;
68353;SDS011;55274;43.060;25.618;2023-05-29T12:02:44;12.57;;;8.80;;
68353;SDS011;55274;43.060;25.618;2023-05-29T12:05:12;11.80;;;8.63;;
68353;SDS011;55274;43.060;25.618;2023-05-29T12:07:51;14.13;;;9.45;;
68353;SDS011;55274;43.060;25.618;2023-05-29T12:10:19;15.93;;;9.40;;
68353;SDS011;55274;43.060;25.618;2023-05-29T12:12:53;19.52;;;9.93;;
68353;SDS011;55274;43.060;25.618;2023-05-29T12:15:20;16.98;;;9.45;;
68353;SDS011;55274;43.060;25.618;2023-05-29T12:17:47;15.35;;;9.68;;
68353;SDS011;55274;43.060;25.618;2023-05-29T12:20:17;15.13;;;9.57;;
68353;SDS011;55274;43.060;25.618;2023-05-29T12:22:44;13.82;;;8.88;;
68353;SDS011;55274;43.060;25.618;2023-05-29T12:25:11;12.60;;;8.57;;
68353;SDS011;55274;43.060;25.618;2023-05-29T12:27:47;14.50;;;7.70;;
68353;SDS011;55274;43.060;25.618;2023-05-29T12:30:14;10.88;;;6.53;;
68353;SDS011;55274;43.060;25.618;2023-05-29T12:32:46;10.98;;;6.88;;
68353;SDS011;55274;43.060;25.618;2023-05-29T12:37:47;13.35;;;9.80;;
68353;SDS011;55274;43.060;25.618;2023-05-29T12:40:18;15.18;;;9.52;;
68353;SDS011;55274;43.060;25.618;2023-05-29T12:42:46;14.98;;;9.35;;
68353;SDS011;55274;43.060;25.618;2023-05-29T12:45:12;15.13;;;9.57;;
68353;SDS011;55274;43.060;25.618;2023-05-29T12:47:55;15.30;;;9.50;;
68353;SDS011;55274;43.060;25.618;2023-05-29T12:50:24;12.38;;;9.23;;
68353;SDS011;55274;43.060;25.618;2023-05-29T12:52:55;14.35;;;9.00;;
68353;SDS011;55274;43.060;25.618;2023-05-29T12:55:22;14.57;;;9.30;;
68353;SDS011;55274;43.060;25.618;2023-05-29T12:57:48;10.27;;;5.88;;
68353;SDS011;55274;43.060;25.618;2023-05-29T13:00:14;10.63;;;5.93;;
68353;SDS011;55274;43.060;25.618;2023-05-29T13:02:41;10.50;;;6.13;;
68353;SDS011;55274;43.060;25.618;2023-05-29T13:05:07;14.75;;;5.90;;
68353;SDS011;55274;43.060;25.618;2023-05-29T13:07:33;8.77;;;5.75;;
68353;SDS011;55274;43.060;25.618;2023-05-29T13:09:59;10.85;;;5.22;;
68353;SDS011;55274;43.060;25.618;2023-05-29T13:12:27;15.05;;;6.50;;
68353;SDS011;55274;43.060;25.618;2023-05-29T13:14:55;18.40;;;15.07;;
68353;SDS011;55274;43.060;25.618;2023-05-29T13:17:27;10.73;;;5.97;;
68353;SDS011;55274;43.060;25.618;2023-05-29T13:19:53;9.57;;;5.75;;
68353;SDS011;55274;43.060;25.618;2023-05-29T13:22:19;10.52;;;6.47;;
68353;SDS011;55274;43.060;25.618;2023-05-29T13:24:45;8.80;;;5.72;;
68353;SDS011;55274;43.060;25.618;2023-05-29T13:27:11;12.00;;;8.32;;
68353;SDS011;55274;43.060;25.618;2023-05-29T13:29:42;12.52;;;7.72;;
68353;SDS011;55274;43.060;25.618;2023-05-29T13:32:08;15.85;;;7.63;;
68353;SDS011;55274;43.060;25.618;2023-05-29T13:34:34;11.18;;;5.85;;
68353;SDS011;55274;43.060;25.618;2023-05-29T13:37:00;8.65;;;4.82;;
68353;SDS011;55274;43.060;25.618;2023-05-29T13:39:27;7.05;;;3.70;;
68353;SDS011;55274;43.060;25.618;2023-05-29T13:41:53;5.95;;;3.42;;
68353;SDS011;55274;43.060;25.618;2023-05-29T13:44:19;5.05;;;2.75;;
68353;SDS011;55274;43.060;25.618;2023-05-29T13:46:45;5.13;;;2.75;;
68353;SDS011;55274;43.060;25.618;2023-05-29T13:49:11;4.85;;;3.42;;
68353;SDS011;55274;43.060;25.618;2023-05-29T13:51:36;4.50;;;2.60;;
68353;SDS011;55274;43.060;25.618;2023-05-29T13:54:02;4.55;;;2.47;;
68353;SDS011;55274;43.060;25.618;2023-05-29T13:56:29;5.43;;;2.67;;
68353;SDS011;55274;43.060;25.618;2023-05-29T13:58:55;4.60;;;2.70;;
68353;SDS011;55274;43.060;25.618;2023-05-29T14:01:24;5.03;;;3.45;;
68353;SDS011;55274;43.060;25.618;2023-05-29T14:03:50;4.70;;;2.85;;
68353;SDS011;55274;43.060;25.618;2023-05-29T14:06:16;5.93;;;2.80;;
68353;SDS011;55274;43.060;25.618;2023-05-29T14:08:41;8.55;;;4.35;;
68353;SDS011;55274;43.060;25.618;2023-05-29T14:11:07;7.43;;;2.20;;
68353;SDS011;55274;43.060;25.618;2023-05-29T14:13:33;8.32;;;2.50;;
68353;SDS011;55274;43.060;25.618;2023-05-29T14:15:59;3.83;;;1.67;;
68353;SDS011;55274;43.060;25.618;2023-05-29T14:18:24;6.57;;;1.98;;
68353;SDS011;55274;43.060;25.618;2023-05-29T14:20:50;5.03;;;2.33;;
68353;SDS011;55274;43.060;25.618;2023-05-29T14:23:16;4.07;;;2.83;;
68353;SDS011;55274;43.060;25.618;2023-05-29T14:25:42;5.47;;;2.95;;
68353;SDS011;55274;43.060;25.618;2023-05-29T14:28:08;4.47;;;2.65;;
68353;SDS011;55274;43.060;25.618;2023-05-29T14:30:35;3.50;;;2.10;;
68353;SDS011;55274;43.060;25.618;2023-05-29T14:33:01;3.95;;;2.38;;
68353;SDS011;55274;43.060;25.618;2023-05-29T14:35:27;6.15;;;2.70;;
68353;SDS011;55274;43.060;25.618;2023-05-29T14:37:53;4.53;;;2.35;;
68353;SDS011;55274;43.060;25.618;2023-05-29T14:40:19;8.30;;;3.10;;
68353;SDS011;55274;43.060;25.618;2023-05-29T14:42:44;9.73;;;3.08;;
68353;SDS011;55274;43.060;25.618;2023-05-29T14:45:10;4.65;;;2.42;;
68353;SDS011;55274;43.060;25.618;2023-05-29T14:47:36;4.43;;;2.40;;
68353;SDS011;55274;43.060;25.618;2023-05-29T14:50:02;3.78;;;2.40;;
68353;SDS011;55274;43.060;25.618;2023-05-29T14:52:29;5.05;;;2.45;;
68353;SDS011;55274;43.060;25.618;2023-05-29T14:54:55;6.05;;;2.55;;
68353;SDS011;55274;43.060;25.618;2023-05-29T14:57:20;6.60;;;2.92;;
68353;SDS011;55274;43.060;25.618;2023-05-29T14:59:46;6.60;;;3.00;;
68353;SDS011;55274;43.060;25.618;2023-05-29T15:02:12;5.82;;;2.58;;